Cornelius, NC (28031)

10:11 PM EST on December 24, 2014 (GMT -0500)
Heritage Green | Change Station
CLOSE
Current Station
Personal Weather Station
Location: Cornelius, NC
Elevation: 817 ft
Nearby Weather Stations

Elev 817 ft 35.47 °N, 80.85 °W | Updated 9 minutes ago

Overcast
Overcast
56.3 °F
Feels Like 56.3 °F
N
3.7
Wind Variable Wind from SW

Today
High -- | Low -- °F
--% Chance of Precip.
Yesterday
High -- | Low -- °F
Precip. -- in
7:30 AM 5:16 PM
Waxing Crescent, 13% visible
Pressure 29.72 in
Visibility 7.0 miles
Clouds Mostly Cloudy 1100 ft
Overcast 3400 ft
Dew Point 55 °F
Humidity 95%
Rainfall 0.90 in
Snow Depth Not available.
UV 0 out of 12
Pollen .30 out of 12
Air Quality Not available.
Flu Activity Not available.
METAR KJQF 250255Z 25008G15KT 7SM BKN011 OVC034 16/14 A2972

More Conditions Fewer Conditions

Pressure 29.72 in
Visibility 7.0 miles
Clouds Mostly Cloudy 1100 ft
Overcast 3400 ft
Dew Point 55 °F
Humidity 95%
Rainfall 0.90 in
Snow Depth Not available.
UV 0 out of 12
Pollen .30 out of 12
Air Quality Not available.
Flu Activity Not available.
METAR KJQF 250255Z 25008G15KT 7SM BKN011 OVC034 16/14 A2972

More Conditions Fewer Conditions

10-Day Weather Forecast

Almanac

Astronomy

Dec. 24, 2014 Rise Set
Actual Time
Civil Twilight
Nautical Twilight
Astronomical Twilight
Moon
Length of Visible Light
Length of Day
Tomorrow will be .
, % of the Moon is Illuminated

Today's Extremes

State Highs State Lows

Community

WunderPhotos

Upload Photos

1,780,224 photos uploaded!

WunderBlogs® & News

Nearby

Air Quality

  Air Quality AQ Index Pollutant
Not available.

Snow Depth

Station Depth Elevation

Earthquake Activity

City Distance Mag. Time & Date
Minimum magnitude displayed is 2.5.

Coastal Water Temperatures

Place Temperature

Nearby Weather Stations